Timeline UpdatesTrip UpdatesNews PostsPvt PostsTravel TipsAdmin PostsConv PostsFollowed PostsChat RequestsBlog PostsPNR Posts

Disclaimer
Search
 
 
Thu Apr 24, 2014 05:46:18 ISTHomeTrainsΣChainsAtlasPNRForumGalleryNewsFAQTripsMembersLoginFeedback
No Recent News for this Train
Other Trains in the News **new
Latest...
T.No.57639 Tirupati – Guntur Passenger scheduled to leave Tirupati at 15.15 hrs o­n 29/04/2013 is partially cancelled between Tirupati and Gudur.
Mon Apr 29, 2013 (01:26PM)
⇐ Return Journey: Train# 57640

57639/Tirupati Guntur Passenger (UnReserved)

Sep 19 2013 (10:39AM)
Change Departure Station:
Change Arrival Station:
Post a Train Travel TipPost a Train Travel Tip **new
Post a Comment/Question/Picture/VideoPost a Comment/Question/Picture/Video
Pantry/Catering
✕ NO Pantry Car
✕ NO Catering
RSA - Rake Sharing
57623-57640-57639-57624
Rake/Coach Composition
10 general second class and two second class luggage-cum-brake vans from 1st Dec
Loco
WDM3 of GTL Shed
News    PNR    Forum    Time-Table    Availability    Fare Chart    Map    Arr/Dep History    Trips    Gallery    ΣChains    X/O    Timeline    
Travel Time: 3h 20m    17 halts    Distance: 148 km    Avg Speed: 44 km/hr
Type: Passenger
Zone: SCR/South Central
Departs @ 15:00 (Avg 4m late)
Platform# ???
SMTWTFS
Tirupati Main/TPTY 
Arrives @ 18:20 (Avg 1h 19m late)
Platform# ???
SMTWTFS
Talamanchi/TMC 

17 halts. 21 intermediate Stations between Tirupati Main and Talamanchi

Show ALL intermediate Stations  Show Old Time-Table

#CodeStation NameX/OArrivesAvgDepartsAvgHaltPFDay#KmSpeedElevZoneAddress
1TPTY»Tirupati Main (5)»  -15:00+4--10.031150mSCRChittoor Distt, Andhra Pradesh
2RURenigunta Junction (5)X  15:19+615:20+101m--19.954113mSCRChittoor District, Andhra Pradesh
3YPDYerpedu (2)  15:31+1215:32+121m--119.86480mSCRChittoor, Andhra Pradesh
4RCGRachagunnariX  15:38+1215:39+121m--126.17082mSCRRayalaseema Region, Andhra Pradesh
5KHTSri Kalahasti (2)  15:45+1215:47+122m2133.16168mSCRChittoor District, Andhra Pradesh
6YLKYellakaru (1)  15:59+1216:00+121m1145.27473mSCRCoastal Andhra Region, Andhra Pradesh
7VKIVenkatagiri (3)X  16:10+1216:11+121m1157.56077mSCRNellore District, Andhra Pradesh
8NDZNidigallu (2)  16:19+1216:20+121m--165.57455mSCRSiddavaram, Andhra Pradesh
9VDDVendodu (2)  16:27+1216:28+121m--174.15255mSCRNellore, Andhra Pradesh
10KQAKondagunta (1)XO  16:39+1316:40+131m1183.52053mSCRNellore, Andhra Pradesh
11GDRGudur Junction (3)  17:10+4117:15+485m3193.34119mSCRGudur, Andhra Pradesh
12MBLManubolu (3)X  17:29+5117:30+521m11102.87422mSCRManubolu Railway Station, Andhra Pradesh
13VKTVenkatachalam (3)  17:40+5817:41+1:001m11115.27026mSCRVenkatachelam, Andhra Pradesh
14VDEVedayapalem (2)X  17:49+1:0317:50+1:031m11124.56427mSCRNellore, Andhra Pradesh
15NLSNellore South (2)X  17:55+1:0417:56+1:041m11129.82322mSCRNellore, Andhra Pradesh
16NLRNellore (4)X  18:01+1:0118:02+1:061m21131.84021mSCRNellore, Andhra Pradesh
17PGUPadugupadu (3)  18:08+1:1118:09+1:151m11135.86421mSCRKovur, Andhra Pradesh
18KJJKodavaluru (2)  18:16+1:1618:17+1:161m--1143.29517mSCRNational Highway 5, Andhra Pradesh
19TMC•Talamanchi•X  18:20+1:1918:21+1:261m--1148.07715mSCRNational Highway 5, Andhra Pradesh
20AXRAlluru RoadX  18:30+1:2718:31+1:311m--1159.5568mSCRNational Highway 5, Andhra Pradesh
21BTTRBitragunta (2)  18:38+1:3418:39+1:421m11166.13115mSCRBitragunta, Andhra Pradesh
22SVPMSri Venkateswarapalem (2)X  18:47+1:4218:48+1:481m--1170.26722mSCRNational Highway 5, Andhra Pradesh
23KVZKavali (4)O  18:59+1:4619:00+1:501m41182.55021mSCRKavali, Andhra Pradesh
24TTUTettu (2)X  19:17+1:4719:18+1:531m--1196.89224mSCRNational Highway 5, Andhra Pradesh
25UPDUlavapadu (2)XO  19:27+1:5619:28+2:021m--1210.66413mSCRUlavapadu, Andhra Pradesh
26SKMSingarayakonda (3)X  19:37+2:0319:38+2:031m11220.37226mSCRSingarayakonda, Andhra Pradesh
27TNRTanguturu (2)  19:46+2:0419:47+2:081m--1229.95510mSCRTanguturu, Andhra Pradesh
28SDMSurareddipalem (3)X  19:56+2:1019:57+2:111m--1238.2309mSCRSurareddy Palem, Andhra Pradesh
29OGLOngole (3)  20:18+1:5220:19+1:571m11248.55212mSCROngole ph.no . 08592-280202, Andhra Pradesh
30KRVKaravadi (2)  20:29+2:0720:30+2:111m--1257.16311mSCRKaravadi, Andhra Pradesh
31ANBAmmanabrolu (3)X  20:36+2:1220:37+2:121m--1263.44916mSCRAmmanabrolu, Andhra Pradesh
32RPRLRaparla Halt (2)X  20:41+2:1420:42+2:141m--1266.7529mSCRNH 214A, Andhra Pradesh
33UGDUppugunduru (2)X  20:47+2:1320:48+2:241m--1271.0495mSCRUppugundur Machavaram Rd, Andhra Pradesh
34CJMChinnaganjam (3)X  20:56+2:2420:57+2:261m--1277.6569mSCRChinna Ganjam, Andhra Pradesh
35KVDUKadavakuduru (2)  21:02+2:2621:03+2:261m--1282.2648mSCRKadavakuduru, Andhra Pradesh
36KPLLKottapandillapalli (2)O  21:07+2:2521:08+2:251m--1286.5428mSCRNH 214A, Andhra Pradesh
37VTMVetapalem (3)O  21:13+2:2521:14+2:331m--1290.0568mSCRVetapalem, Andhra Pradesh
38JAQJandrapeta (2)O  21:19+2:3421:20+2:341m--1294.7389mSCRChirala, Andhra Pradesh
39CLXChirala (4)O  21:25+2:3021:26+2:441m--1297.9498mSCRChirala, Andhra Pradesh
40SPFStuartpuram  21:36+2:4821:37+2:481m--1306.1699mSCRBapatla West Rural, Andhra Pradesh
41BPPBapatla (3)X  21:43+2:4221:44+2:421m--1312.95810mSCRBapatla, Andhra Pradesh
42APLAppikatla (2)XO  21:53+2:4921:54+2:551m--1321.7517mSCRGBC Rd, Andhra Pradesh
43NDONidubrolu (3)O  22:08+2:5322:09+3:031m--1333.5529mSCRNidubrolu, Andhra Pradesh
44MDKUModukuru (2)X  22:17+2:5422:18+2:541m--1340.41610mSCRModukuru, Andhra Pradesh
45TSRTsunduru (3)XO  22:32+2:4822:33+2:541m--1344.0312mSCRTsunduru, Andhra Pradesh
46TELTenali Junction (5)X  02:00+2602:05+275m--2355.54516mSCRTel: 08644-227834, Andhra Pradesh
47SJLSangam Jagarlamudi (2)  02:16+2302:17+231m--2363.95716mSCRPhone Number : 08644-258120, Andhra Pradesh
48VJAVejandla (1)  02:23+1602:24+171m12369.51922mSCRPhone Number : 0863-2534861, Andhra Pradesh
49GNTGuntur Junction (7)  03:00+12---2381.1-37mSCRGuntur, Andhra Pradesh
Scroll to Top
Scroll to Bottom